sensor_id;sensor_type;location;lat;lon;timestamp;P1;durP1;ratioP1;P2;durP2;ratioP2
38581;SDS011;24349;53.720;10.014;2023-07-29T00:01:30;4.75;;;2.95;;
38581;SDS011;24349;53.720;10.014;2023-07-29T00:03:56;4.60;;;2.78;;
38581;SDS011;24349;53.720;10.014;2023-07-29T00:06:21;6.28;;;3.65;;
38581;SDS011;24349;53.720;10.014;2023-07-29T00:08:47;6.80;;;3.72;;
38581;SDS011;24349;53.720;10.014;2023-07-29T00:11:12;4.88;;;3.40;;
38581;SDS011;24349;53.720;10.014;2023-07-29T00:13:38;28.35;;;3.13;;
38581;SDS011;24349;53.720;10.014;2023-07-29T00:16:04;93.25;;;6.68;;
38581;SDS011;24349;53.720;10.014;2023-07-29T00:18:29;10.32;;;3.00;;
38581;SDS011;24349;53.720;10.014;2023-07-29T00:20:56;5.63;;;2.63;;
38581;SDS011;24349;53.720;10.014;2023-07-29T00:23:22;4.68;;;2.83;;
38581;SDS011;24349;53.720;10.014;2023-07-29T00:25:48;5.20;;;3.38;;
38581;SDS011;24349;53.720;10.014;2023-07-29T00:28:13;5.57;;;3.55;;
38581;SDS011;24349;53.720;10.014;2023-07-29T00:30:39;4.53;;;3.00;;
38581;SDS011;24349;53.720;10.014;2023-07-29T00:33:05;6.65;;;4.00;;
38581;SDS011;24349;53.720;10.014;2023-07-29T00:35:30;4.20;;;2.50;;
38581;SDS011;24349;53.720;10.014;2023-07-29T00:37:56;4.35;;;2.35;;
38581;SDS011;24349;53.720;10.014;2023-07-29T00:40:22;5.50;;;3.38;;
38581;SDS011;24349;53.720;10.014;2023-07-29T00:42:48;5.18;;;3.10;;
38581;SDS011;24349;53.720;10.014;2023-07-29T00:45:15;3.92;;;2.30;;
38581;SDS011;24349;53.720;10.014;2023-07-29T00:47:41;4.15;;;2.42;;
38581;SDS011;24349;53.720;10.014;2023-07-29T00:50:07;4.40;;;2.92;;
38581;SDS011;24349;53.720;10.014;2023-07-29T00:52:36;5.95;;;2.90;;
38581;SDS011;24349;53.720;10.014;2023-07-29T00:55:02;4.70;;;2.72;;
38581;SDS011;24349;53.720;10.014;2023-07-29T00:57:29;6.43;;;4.15;;
38581;SDS011;24349;53.720;10.014;2023-07-29T00:59:55;5.40;;;3.80;;
38581;SDS011;24349;53.720;10.014;2023-07-29T01:02:21;6.38;;;3.75;;
38581;SDS011;24349;53.720;10.014;2023-07-29T01:04:53;5.45;;;3.92;;
38581;SDS011;24349;53.720;10.014;2023-07-29T01:15:36;10.52;;;5.75;;
38581;SDS011;24349;53.720;10.014;2023-07-29T01:18:24;9.02;;;6.72;;
38581;SDS011;24349;53.720;10.014;2023-07-29T01:20:54;7.97;;;5.53;;
38581;SDS011;24349;53.720;10.014;2023-07-29T01:23:24;6.00;;;4.22;;
38581;SDS011;24349;53.720;10.014;2023-07-29T01:25:56;10.02;;;6.15;;
38581;SDS011;24349;53.720;10.014;2023-07-29T01:28:22;9.60;;;5.88;;
38581;SDS011;24349;53.720;10.014;2023-07-29T01:30:49;6.65;;;4.30;;
38581;SDS011;24349;53.720;10.014;2023-07-29T01:33:23;6.90;;;4.65;;
38581;SDS011;24349;53.720;10.014;2023-07-29T01:35:58;6.55;;;4.90;;
38581;SDS011;24349;53.720;10.014;2023-07-29T01:38:38;6.13;;;4.35;;
38581;SDS011;24349;53.720;10.014;2023-07-29T01:41:07;5.57;;;4.03;;
38581;SDS011;24349;53.720;10.014;2023-07-29T01:43:33;5.57;;;3.90;;
38581;SDS011;24349;53.720;10.014;2023-07-29T01:46:04;5.45;;;3.78;;
38581;SDS011;24349;53.720;10.014;2023-07-29T01:48:29;5.72;;;4.20;;
38581;SDS011;24349;53.720;10.014;2023-07-29T01:50:56;7.47;;;5.63;;
38581;SDS011;24349;53.720;10.014;2023-07-29T01:53:22;6.35;;;4.43;;
38581;SDS011;24349;53.720;10.014;2023-07-29T01:55:48;9.98;;;6.70;;
38581;SDS011;24349;53.720;10.014;2023-07-29T01:58:14;8.88;;;6.80;;
38581;SDS011;24349;53.720;10.014;2023-07-29T02:00:39;8.27;;;4.50;;
38581;SDS011;24349;53.720;10.014;2023-07-29T02:03:05;6.20;;;3.95;;
38581;SDS011;24349;53.720;10.014;2023-07-29T02:05:31;7.15;;;4.38;;
38581;SDS011;24349;53.720;10.014;2023-07-29T02:07:57;6.65;;;4.57;;
38581;SDS011;24349;53.720;10.014;2023-07-29T02:10:22;11.20;;;6.43;;
38581;SDS011;24349;53.720;10.014;2023-07-29T02:12:48;7.25;;;4.18;;
38581;SDS011;24349;53.720;10.014;2023-07-29T02:15:13;6.82;;;5.65;;
38581;SDS011;24349;53.720;10.014;2023-07-29T02:17:42;6.85;;;4.50;;
38581;SDS011;24349;53.720;10.014;2023-07-29T02:20:08;6.57;;;5.15;;
38581;SDS011;24349;53.720;10.014;2023-07-29T02:22:35;7.72;;;5.57;;
38581;SDS011;24349;53.720;10.014;2023-07-29T02:25:01;8.60;;;5.90;;
38581;SDS011;24349;53.720;10.014;2023-07-29T02:27:27;7.78;;;6.00;;
38581;SDS011;24349;53.720;10.014;2023-07-29T02:29:53;8.48;;;6.60;;
38581;SDS011;24349;53.720;10.014;2023-07-29T02:32:19;9.60;;;6.90;;
38581;SDS011;24349;53.720;10.014;2023-07-29T02:34:45;11.57;;;8.77;;
38581;SDS011;24349;53.720;10.014;2023-07-29T02:37:11;9.30;;;6.75;;
38581;SDS011;24349;53.720;10.014;2023-07-29T02:39:37;10.05;;;7.47;;
38581;SDS011;24349;53.720;10.014;2023-07-29T02:42:02;10.13;;;8.02;;
38581;SDS011;24349;53.720;10.014;2023-07-29T02:44:28;8.13;;;5.82;;
38581;SDS011;24349;53.720;10.014;2023-07-29T02:46:54;7.57;;;5.57;;
38581;SDS011;24349;53.720;10.014;2023-07-29T02:49:21;7.53;;;5.10;;
38581;SDS011;24349;53.720;10.014;2023-07-29T02:51:47;7.82;;;5.63;;
38581;SDS011;24349;53.720;10.014;2023-07-29T02:54:12;8.45;;;6.38;;
38581;SDS011;24349;53.720;10.014;2023-07-29T02:56:38;7.57;;;6.13;;
38581;SDS011;24349;53.720;10.014;2023-07-29T02:59:04;7.72;;;5.07;;
38581;SDS011;24349;53.720;10.014;2023-07-29T03:01:30;7.80;;;5.28;;
38581;SDS011;24349;53.720;10.014;2023-07-29T03:03:55;9.38;;;6.43;;
38581;SDS011;24349;53.720;10.014;2023-07-29T03:06:21;9.23;;;6.47;;
38581;SDS011;24349;53.720;10.014;2023-07-29T03:08:47;11.95;;;8.55;;
38581;SDS011;24349;53.720;10.014;2023-07-29T03:11:13;7.70;;;5.97;;
38581;SDS011;24349;53.720;10.014;2023-07-29T03:13:39;8.88;;;6.95;;
38581;SDS011;24349;53.720;10.014;2023-07-29T03:16:12;7.85;;;6.68;;
38581;SDS011;24349;53.720;10.014;2023-07-29T03:18:40;15.75;;;10.73;;
38581;SDS011;24349;53.720;10.014;2023-07-29T03:21:07;11.30;;;7.72;;
38581;SDS011;24349;53.720;10.014;2023-07-29T03:23:33;20.02;;;16.20;;
38581;SDS011;24349;53.720;10.014;2023-07-29T03:25:59;12.18;;;9.07;;
38581;SDS011;24349;53.720;10.014;2023-07-29T03:28:29;22.08;;;18.27;;
38581;SDS011;24349;53.720;10.014;2023-07-29T03:30:57;12.63;;;11.32;;
38581;SDS011;24349;53.720;10.014;2023-07-29T03:33:23;11.48;;;10.18;;
38581;SDS011;24349;53.720;10.014;2023-07-29T03:35:50;16.85;;;13.65;;
38581;SDS011;24349;53.720;10.014;2023-07-29T03:38:16;15.20;;;13.50;;
38581;SDS011;24349;53.720;10.014;2023-07-29T03:40:42;13.52;;;11.02;;
38581;SDS011;24349;53.720;10.014;2023-07-29T03:43:08;17.92;;;14.48;;
38581;SDS011;24349;53.720;10.014;2023-07-29T03:45:34;30.67;;;22.30;;
38581;SDS011;24349;53.720;10.014;2023-07-29T03:48:00;18.05;;;15.25;;
38581;SDS011;24349;53.720;10.014;2023-07-29T03:50:26;16.15;;;13.13;;
38581;SDS011;24349;53.720;10.014;2023-07-29T03:52:52;23.15;;;17.98;;
38581;SDS011;24349;53.720;10.014;2023-07-29T03:55:18;21.55;;;16.42;;
38581;SDS011;24349;53.720;10.014;2023-07-29T03:57:44;29.88;;;21.85;;
38581;SDS011;24349;53.720;10.014;2023-07-29T04:00:09;29.45;;;20.00;;
38581;SDS011;24349;53.720;10.014;2023-07-29T04:02:35;25.85;;;18.83;;
38581;SDS011;24349;53.720;10.014;2023-07-29T04:05:04;19.73;;;17.00;;
38581;SDS011;24349;53.720;10.014;2023-07-29T04:07:33;22.25;;;19.38;;
38581;SDS011;24349;53.720;10.014;2023-07-29T04:09:59;25.60;;;20.50;;
38581;SDS011;24349;53.720;10.014;2023-07-29T04:12:25;39.72;;;27.63;;
38581;SDS011;24349;53.720;10.014;2023-07-29T04:14:51;24.13;;;17.90;;
38581;SDS011;24349;53.720;10.014;2023-07-29T04:17:17;25.15;;;21.40;;
38581;SDS011;24349;53.720;10.014;2023-07-29T04:19:42;40.78;;;28.77;;
38581;SDS011;24349;53.720;10.014;2023-07-29T04:22:08;18.77;;;15.65;;
38581;SDS011;24349;53.720;10.014;2023-07-29T04:24:34;20.95;;;17.05;;
38581;SDS011;24349;53.720;10.014;2023-07-29T04:26:59;24.38;;;20.23;;
38581;SDS011;24349;53.720;10.014;2023-07-29T04:29:25;22.52;;;18.10;;
38581;SDS011;24349;53.720;10.014;2023-07-29T04:31:50;36.83;;;28.85;;
38581;SDS011;24349;53.720;10.014;2023-07-29T04:34:17;27.77;;;23.33;;
38581;SDS011;24349;53.720;10.014;2023-07-29T04:36:44;24.40;;;19.90;;
38581;SDS011;24349;53.720;10.014;2023-07-29T04:39:12;29.88;;;24.83;;
38581;SDS011;24349;53.720;10.014;2023-07-29T04:41:38;34.45;;;28.83;;
38581;SDS011;24349;53.720;10.014;2023-07-29T04:44:04;39.33;;;30.60;;
38581;SDS011;24349;53.720;10.014;2023-07-29T04:46:29;32.90;;;26.65;;
38581;SDS011;24349;53.720;10.014;2023-07-29T04:48:55;37.25;;;31.08;;
38581;SDS011;24349;53.720;10.014;2023-07-29T04:51:21;30.85;;;24.42;;
38581;SDS011;24349;53.720;10.014;2023-07-29T04:53:47;26.88;;;22.70;;
38581;SDS011;24349;53.720;10.014;2023-07-29T04:56:13;36.70;;;29.08;;
38581;SDS011;24349;53.720;10.014;2023-07-29T04:58:38;37.15;;;29.88;;
38581;SDS011;24349;53.720;10.014;2023-07-29T05:01:04;40.00;;;31.42;;
38581;SDS011;24349;53.720;10.014;2023-07-29T05:03:30;34.45;;;28.75;;
38581;SDS011;24349;53.720;10.014;2023-07-29T05:05:56;30.50;;;25.13;;
38581;SDS011;24349;53.720;10.014;2023-07-29T05:08:22;31.58;;;23.42;;
38581;SDS011;24349;53.720;10.014;2023-07-29T05:10:49;38.65;;;30.17;;
38581;SDS011;24349;53.720;10.014;2023-07-29T05:13:15;37.88;;;29.13;;
38581;SDS011;24349;53.720;10.014;2023-07-29T05:15:41;28.63;;;23.48;;
38581;SDS011;24349;53.720;10.014;2023-07-29T05:18:06;35.95;;;28.00;;
38581;SDS011;24349;53.720;10.014;2023-07-29T05:20:32;35.20;;;28.13;;
38581;SDS011;24349;53.720;10.014;2023-07-29T05:22:58;39.13;;;29.25;;
38581;SDS011;24349;53.720;10.014;2023-07-29T05:25:23;35.30;;;26.95;;
38581;SDS011;24349;53.720;10.014;2023-07-29T05:27:49;24.65;;;20.50;;
38581;SDS011;24349;53.720;10.014;2023-07-29T05:30:14;31.05;;;24.70;;
38581;SDS011;24349;53.720;10.014;2023-07-29T05:32:40;34.00;;;26.67;;
38581;SDS011;24349;53.720;10.014;2023-07-29T05:35:06;31.75;;;25.45;;
38581;SDS011;24349;53.720;10.014;2023-07-29T05:37:32;32.40;;;25.85;;
38581;SDS011;24349;53.720;10.014;2023-07-29T05:39:57;33.30;;;27.27;;
38581;SDS011;24349;53.720;10.014;2023-07-29T05:42:23;28.45;;;22.88;;
38581;SDS011;24349;53.720;10.014;2023-07-29T05:44:49;26.25;;;21.85;;
38581;SDS011;24349;53.720;10.014;2023-07-29T05:47:15;32.88;;;25.17;;
38581;SDS011;24349;53.720;10.014;2023-07-29T05:49:40;30.70;;;26.00;;
38581;SDS011;24349;53.720;10.014;2023-07-29T05:52:06;24.50;;;20.13;;
38581;SDS011;24349;53.720;10.014;2023-07-29T05:54:32;27.65;;;22.13;;
38581;SDS011;24349;53.720;10.014;2023-07-29T05:56:58;27.55;;;23.13;;
38581;SDS011;24349;53.720;10.014;2023-07-29T05:59:23;29.92;;;24.73;;
38581;SDS011;24349;53.720;10.014;2023-07-29T06:01:49;31.17;;;24.25;;
38581;SDS011;24349;53.720;10.014;2023-07-29T06:04:14;33.20;;;25.92;;
38581;SDS011;24349;53.720;10.014;2023-07-29T06:06:40;28.65;;;23.08;;
38581;SDS011;24349;53.720;10.014;2023-07-29T06:09:06;25.42;;;20.85;;
38581;SDS011;24349;53.720;10.014;2023-07-29T06:11:31;26.17;;;21.67;;
38581;SDS011;24349;53.720;10.014;2023-07-29T06:13:57;29.55;;;24.08;;
38581;SDS011;24349;53.720;10.014;2023-07-29T06:16:22;26.45;;;21.08;;
38581;SDS011;24349;53.720;10.014;2023-07-29T06:18:48;32.25;;;24.88;;
38581;SDS011;24349;53.720;10.014;2023-07-29T06:21:14;35.33;;;27.52;;
38581;SDS011;24349;53.720;10.014;2023-07-29T06:23:42;29.10;;;23.50;;
38581;SDS011;24349;53.720;10.014;2023-07-29T06:26:08;26.08;;;20.45;;
38581;SDS011;24349;53.720;10.014;2023-07-29T06:28:34;25.92;;;22.08;;
38581;SDS011;24349;53.720;10.014;2023-07-29T06:30:59;24.75;;;19.65;;
38581;SDS011;24349;53.720;10.014;2023-07-29T06:33:26;25.98;;;20.88;;
38581;SDS011;24349;53.720;10.014;2023-07-29T06:35:51;25.45;;;21.05;;
38581;SDS011;24349;53.720;10.014;2023-07-29T06:38:17;29.13;;;24.17;;
38581;SDS011;24349;53.720;10.014;2023-07-29T06:40:46;30.30;;;24.35;;
38581;SDS011;24349;53.720;10.014;2023-07-29T06:43:13;26.27;;;20.10;;
38581;SDS011;24349;53.720;10.014;2023-07-29T06:45:38;19.63;;;16.52;;
38581;SDS011;24349;53.720;10.014;2023-07-29T06:48:04;25.42;;;21.38;;
38581;SDS011;24349;53.720;10.014;2023-07-29T06:50:30;21.67;;;18.55;;
38581;SDS011;24349;53.720;10.014;2023-07-29T06:52:55;21.95;;;19.15;;
38581;SDS011;24349;53.720;10.014;2023-07-29T06:55:21;25.75;;;20.20;;
38581;SDS011;24349;53.720;10.014;2023-07-29T06:57:46;18.55;;;15.35;;
38581;SDS011;24349;53.720;10.014;2023-07-29T07:00:12;25.98;;;22.15;;
38581;SDS011;24349;53.720;10.014;2023-07-29T07:02:38;22.73;;;18.55;;
38581;SDS011;24349;53.720;10.014;2023-07-29T07:05:03;22.92;;;20.42;;
38581;SDS011;24349;53.720;10.014;2023-07-29T07:07:29;19.50;;;16.73;;
38581;SDS011;24349;53.720;10.014;2023-07-29T07:09:55;22.20;;;19.13;;
38581;SDS011;24349;53.720;10.014;2023-07-29T07:12:21;16.85;;;15.10;;
38581;SDS011;24349;53.720;10.014;2023-07-29T07:14:47;19.75;;;16.95;;
38581;SDS011;24349;53.720;10.014;2023-07-29T07:17:13;19.65;;;17.55;;
38581;SDS011;24349;53.720;10.014;2023-07-29T07:19:38;20.00;;;17.85;;
38581;SDS011;24349;53.720;10.014;2023-07-29T07:22:04;19.73;;;17.58;;
38581;SDS011;24349;53.720;10.014;2023-07-29T07:24:30;19.50;;;16.77;;
38581;SDS011;24349;53.720;10.014;2023-07-29T07:26:55;18.25;;;15.38;;
38581;SDS011;24349;53.720;10.014;2023-07-29T07:29:21;19.77;;;17.60;;
38581;SDS011;24349;53.720;10.014;2023-07-29T07:31:50;21.33;;;17.92;;
38581;SDS011;24349;53.720;10.014;2023-07-29T07:34:21;18.33;;;15.35;;
38581;SDS011;24349;53.720;10.014;2023-07-29T07:36:46;20.65;;;18.33;;
38581;SDS011;24349;53.720;10.014;2023-07-29T07:39:12;25.40;;;21.80;;
38581;SDS011;24349;53.720;10.014;2023-07-29T07:41:38;22.58;;;18.50;;
38581;SDS011;24349;53.720;10.014;2023-07-29T07:44:05;22.60;;;19.08;;
38581;SDS011;24349;53.720;10.014;2023-07-29T07:46:30;20.27;;;17.15;;
38581;SDS011;24349;53.720;10.014;2023-07-29T07:48:56;21.60;;;19.25;;
38581;SDS011;24349;53.720;10.014;2023-07-29T07:51:22;19.45;;;14.77;;
38581;SDS011;24349;53.720;10.014;2023-07-29T07:53:48;18.10;;;14.38;;
38581;SDS011;24349;53.720;10.014;2023-07-29T07:56:13;21.55;;;19.17;;
38581;SDS011;24349;53.720;10.014;2023-07-29T07:58:40;21.98;;;19.65;;
38581;SDS011;24349;53.720;10.014;2023-07-29T08:01:06;23.45;;;20.52;;
38581;SDS011;24349;53.720;10.014;2023-07-29T08:03:32;23.33;;;19.67;;
38581;SDS011;24349;53.720;10.014;2023-07-29T08:05:59;21.67;;;19.33;;
38581;SDS011;24349;53.720;10.014;2023-07-29T08:08:25;23.98;;;19.08;;
38581;SDS011;24349;53.720;10.014;2023-07-29T08:10:54;23.23;;;20.40;;
38581;SDS011;24349;53.720;10.014;2023-07-29T08:13:22;23.77;;;19.25;;
38581;SDS011;24349;53.720;10.014;2023-07-29T08:15:49;23.58;;;19.75;;
38581;SDS011;24349;53.720;10.014;2023-07-29T08:18:15;24.02;;;20.35;;
38581;SDS011;24349;53.720;10.014;2023-07-29T08:20:49;22.40;;;20.10;;
38581;SDS011;24349;53.720;10.014;2023-07-29T08:23:20;26.45;;;20.83;;
38581;SDS011;24349;53.720;10.014;2023-07-29T08:26:05;21.80;;;19.50;;
38581;SDS011;24349;53.720;10.014;2023-07-29T08:28:32;29.52;;;20.45;;
38581;SDS011;24349;53.720;10.014;2023-07-29T08:31:03;22.00;;;19.70;;
38581;SDS011;24349;53.720;10.014;2023-07-29T08:33:29;23.17;;;19.67;;
38581;SDS011;24349;53.720;10.014;2023-07-29T08:35:55;20.77;;;18.52;;
38581;SDS011;24349;53.720;10.014;2023-07-29T08:38:21;22.95;;;19.80;;
38581;SDS011;24349;53.720;10.014;2023-07-29T08:43:54;22.42;;;19.20;;
38581;SDS011;24349;53.720;10.014;2023-07-29T08:46:41;24.50;;;20.45;;
38581;SDS011;24349;53.720;10.014;2023-07-29T08:49:07;24.83;;;21.50;;
38581;SDS011;24349;53.720;10.014;2023-07-29T08:51:34;23.83;;;21.23;;
38581;SDS011;24349;53.720;10.014;2023-07-29T08:54:00;24.95;;;22.27;;
38581;SDS011;24349;53.720;10.014;2023-07-29T08:56:26;25.50;;;21.23;;
38581;SDS011;24349;53.720;10.014;2023-07-29T08:58:53;24.50;;;21.52;;
38581;SDS011;24349;53.720;10.014;2023-07-29T09:01:19;26.95;;;22.58;;
38581;SDS011;24349;53.720;10.014;2023-07-29T09:03:45;26.95;;;22.90;;
38581;SDS011;24349;53.720;10.014;2023-07-29T09:06:10;29.42;;;23.70;;
38581;SDS011;24349;53.720;10.014;2023-07-29T09:08:38;27.35;;;22.05;;
38581;SDS011;24349;53.720;10.014;2023-07-29T09:11:04;25.35;;;20.35;;
38581;SDS011;24349;53.720;10.014;2023-07-29T09:13:30;27.25;;;21.60;;
38581;SDS011;24349;53.720;10.014;2023-07-29T09:15:57;28.65;;;22.00;;
38581;SDS011;24349;53.720;10.014;2023-07-29T09:18:23;24.17;;;20.80;;
38581;SDS011;24349;53.720;10.014;2023-07-29T09:20:52;27.67;;;22.33;;
38581;SDS011;24349;53.720;10.014;2023-07-29T09:23:18;25.58;;;21.67;;
38581;SDS011;24349;53.720;10.014;2023-07-29T09:25:45;24.17;;;20.80;;
38581;SDS011;24349;53.720;10.014;2023-07-29T09:28:13;23.90;;;21.05;;
38581;SDS011;24349;53.720;10.014;2023-07-29T09:30:41;22.85;;;18.83;;
38581;SDS011;24349;53.720;10.014;2023-07-29T09:33:08;20.15;;;17.95;;
38581;SDS011;24349;53.720;10.014;2023-07-29T09:35:34;22.80;;;18.52;;
38581;SDS011;24349;53.720;10.014;2023-07-29T09:38:04;20.63;;;18.42;;
38581;SDS011;24349;53.720;10.014;2023-07-29T09:40:35;19.50;;;17.08;;
38581;SDS011;24349;53.720;10.014;2023-07-29T09:43:02;20.40;;;17.45;;
38581;SDS011;24349;53.720;10.014;2023-07-29T09:45:29;20.20;;;17.83;;
38581;SDS011;24349;53.720;10.014;2023-07-29T09:47:56;18.33;;;16.33;;
38581;SDS011;24349;53.720;10.014;2023-07-29T09:50:23;17.60;;;14.88;;
38581;SDS011;24349;53.720;10.014;2023-07-29T09:52:50;18.63;;;15.82;;
38581;SDS011;24349;53.720;10.014;2023-07-29T09:55:17;16.83;;;13.85;;
38581;SDS011;24349;53.720;10.014;2023-07-29T09:57:44;14.68;;;13.10;;
38581;SDS011;24349;53.720;10.014;2023-07-29T10:00:10;19.42;;;14.15;;
38581;SDS011;24349;53.720;10.014;2023-07-29T10:02:43;12.93;;;11.20;;
38581;SDS011;24349;53.720;10.014;2023-07-29T10:05:09;17.23;;;14.07;;
38581;SDS011;24349;53.720;10.014;2023-07-29T10:07:38;11.98;;;9.18;;
38581;SDS011;24349;53.720;10.014;2023-07-29T10:10:05;12.23;;;9.02;;
38581;SDS011;24349;53.720;10.014;2023-07-29T10:12:32;10.60;;;8.73;;
38581;SDS011;24349;53.720;10.014;2023-07-29T10:14:59;9.35;;;8.18;;
38581;SDS011;24349;53.720;10.014;2023-07-29T10:17:27;8.95;;;7.88;;
38581;SDS011;24349;53.720;10.014;2023-07-29T10:19:54;8.50;;;7.03;;
38581;SDS011;24349;53.720;10.014;2023-07-29T10:22:22;8.70;;;7.13;;
38581;SDS011;24349;53.720;10.014;2023-07-29T10:24:53;7.30;;;6.47;;
38581;SDS011;24349;53.720;10.014;2023-07-29T10:27:24;18.20;;;10.43;;
38581;SDS011;24349;53.720;10.014;2023-07-29T10:29:51;8.07;;;6.50;;
38581;SDS011;24349;53.720;10.014;2023-07-29T10:32:20;8.23;;;5.95;;
38581;SDS011;24349;53.720;10.014;2023-07-29T10:34:50;10.18;;;7.55;;
38581;SDS011;24349;53.720;10.014;2023-07-29T10:37:16;7.78;;;5.85;;
38581;SDS011;24349;53.720;10.014;2023-07-29T10:39:51;8.52;;;5.93;;
38581;SDS011;24349;53.720;10.014;2023-07-29T10:42:18;6.90;;;5.55;;
38581;SDS011;24349;53.720;10.014;2023-07-29T10:44:48;8.68;;;5.10;;
38581;SDS011;24349;53.720;10.014;2023-07-29T10:49:45;7.97;;;5.03;;
38581;SDS011;24349;53.720;10.014;2023-07-29T10:52:15;6.53;;;4.68;;
38581;SDS011;24349;53.720;10.014;2023-07-29T10:54:52;6.05;;;5.35;;
38581;SDS011;24349;53.720;10.014;2023-07-29T10:57:37;7.72;;;5.50;;
38581;SDS011;24349;53.720;10.014;2023-07-29T11:00:06;6.40;;;5.28;;
38581;SDS011;24349;53.720;10.014;2023-07-29T11:02:34;8.25;;;5.30;;
38581;SDS011;24349;53.720;10.014;2023-07-29T11:05:07;8.15;;;5.05;;
38581;SDS011;24349;53.720;10.014;2023-07-29T11:07:51;7.68;;;6.03;;
38581;SDS011;24349;53.720;10.014;2023-07-29T11:10:17;8.32;;;5.93;;
38581;SDS011;24349;53.720;10.014;2023-07-29T11:12:49;6.65;;;5.03;;
38581;SDS011;24349;53.720;10.014;2023-07-29T11:15:17;7.53;;;5.03;;
38581;SDS011;24349;53.720;10.014;2023-07-29T11:20:18;6.07;;;4.45;;
38581;SDS011;24349;53.720;10.014;2023-07-29T11:22:48;6.28;;;3.72;;
38581;SDS011;24349;53.720;10.014;2023-07-29T11:25:14;4.40;;;2.78;;
38581;SDS011;24349;53.720;10.014;2023-07-29T11:27:41;6.32;;;2.72;;
38581;SDS011;24349;53.720;10.014;2023-07-29T11:30:08;4.57;;;2.72;;
38581;SDS011;24349;53.720;10.014;2023-07-29T11:32:38;4.70;;;2.95;;
38581;SDS011;24349;53.720;10.014;2023-07-29T11:35:06;4.85;;;3.20;;
38581;SDS011;24349;53.720;10.014;2023-07-29T11:37:36;4.95;;;3.20;;
38581;SDS011;24349;53.720;10.014;2023-07-29T11:40:03;5.53;;;3.25;;
38581;SDS011;24349;53.720;10.014;2023-07-29T11:42:33;6.25;;;3.90;;
38581;SDS011;24349;53.720;10.014;2023-07-29T11:45:00;5.65;;;3.58;;
38581;SDS011;24349;53.720;10.014;2023-07-29T11:47:27;4.95;;;3.30;;
38581;SDS011;24349;53.720;10.014;2023-07-29T11:49:52;7.20;;;3.90;;
38581;SDS011;24349;53.720;10.014;2023-07-29T11:52:18;5.65;;;3.65;;
38581;SDS011;24349;53.720;10.014;2023-07-29T11:54:45;5.90;;;4.05;;
38581;SDS011;24349;53.720;10.014;2023-07-29T11:57:13;5.28;;;3.78;;
38581;SDS011;24349;53.720;10.014;2023-07-29T11:59:41;5.75;;;3.53;;
38581;SDS011;24349;53.720;10.014;2023-07-29T12:02:11;7.10;;;3.83;;
38581;SDS011;24349;53.720;10.014;2023-07-29T12:04:44;6.13;;;3.55;;
38581;SDS011;24349;53.720;10.014;2023-07-29T12:07:12;5.05;;;3.58;;
38581;SDS011;24349;53.720;10.014;2023-07-29T12:09:39;5.38;;;3.42;;
38581;SDS011;24349;53.720;10.014;2023-07-29T12:12:06;5.20;;;3.42;;
38581;SDS011;24349;53.720;10.014;2023-07-29T12:14:32;5.60;;;3.63;;
38581;SDS011;24349;53.720;10.014;2023-07-29T12:17:02;5.63;;;3.47;;
38581;SDS011;24349;53.720;10.014;2023-07-29T12:22:00;5.40;;;3.20;;
38581;SDS011;24349;53.720;10.014;2023-07-29T12:24:26;6.32;;;2.90;;
38581;SDS011;24349;53.720;10.014;2023-07-29T12:26:54;3.92;;;2.35;;
38581;SDS011;24349;53.720;10.014;2023-07-29T12:29:19;7.25;;;2.80;;
38581;SDS011;24349;53.720;10.014;2023-07-29T12:31:45;4.90;;;2.40;;
38581;SDS011;24349;53.720;10.014;2023-07-29T12:34:20;4.30;;;2.17;;
38581;SDS011;24349;53.720;10.014;2023-07-29T12:36:48;5.22;;;2.75;;
38581;SDS011;24349;53.720;10.014;2023-07-29T12:41:50;4.68;;;2.95;;
38581;SDS011;24349;53.720;10.014;2023-07-29T12:44:16;4.97;;;2.80;;
38581;SDS011;24349;53.720;10.014;2023-07-29T12:46:42;4.63;;;2.92;;
38581;SDS011;24349;53.720;10.014;2023-07-29T12:49:08;5.22;;;2.80;;
38581;SDS011;24349;53.720;10.014;2023-07-29T12:51:34;4.63;;;2.72;;
38581;SDS011;24349;53.720;10.014;2023-07-29T12:54:01;4.90;;;2.60;;
38581;SDS011;24349;53.720;10.014;2023-07-29T12:56:28;4.63;;;2.90;;
38581;SDS011;24349;53.720;10.014;2023-07-29T12:58:54;5.15;;;2.47;;
38581;SDS011;24349;53.720;10.014;2023-07-29T13:01:20;4.10;;;2.60;;
38581;SDS011;24349;53.720;10.014;2023-07-29T13:03:46;3.88;;;2.25;;
38581;SDS011;24349;53.720;10.014;2023-07-29T13:06:12;5.05;;;2.50;;
38581;SDS011;24349;53.720;10.014;2023-07-29T13:08:38;3.90;;;2.15;;
38581;SDS011;24349;53.720;10.014;2023-07-29T13:11:04;4.43;;;2.40;;
38581;SDS011;24349;53.720;10.014;2023-07-29T13:13:30;4.65;;;2.13;;
38581;SDS011;24349;53.720;10.014;2023-07-29T13:15:56;3.75;;;2.15;;
38581;SDS011;24349;53.720;10.014;2023-07-29T13:18:22;5.03;;;2.17;;
38581;SDS011;24349;53.720;10.014;2023-07-29T13:20:48;4.25;;;2.00;;
38581;SDS011;24349;53.720;10.014;2023-07-29T13:23:14;4.10;;;1.92;;
38581;SDS011;24349;53.720;10.014;2023-07-29T13:25:40;4.95;;;2.08;;
38581;SDS011;24349;53.720;10.014;2023-07-29T13:28:06;3.95;;;2.10;;
38581;SDS011;24349;53.720;10.014;2023-07-29T13:30:33;4.57;;;2.40;;
38581;SDS011;24349;53.720;10.014;2023-07-29T13:32:59;4.85;;;2.00;;
38581;SDS011;24349;53.720;10.014;2023-07-29T13:35:25;4.55;;;2.20;;
38581;SDS011;24349;53.720;10.014;2023-07-29T13:37:50;4.85;;;2.38;;
38581;SDS011;24349;53.720;10.014;2023-07-29T13:40:16;3.92;;;2.00;;
38581;SDS011;24349;53.720;10.014;2023-07-29T13:42:41;3.92;;;2.10;;
38581;SDS011;24349;53.720;10.014;2023-07-29T13:45:07;4.78;;;2.00;;
38581;SDS011;24349;53.720;10.014;2023-07-29T13:47:33;3.97;;;2.10;;
38581;SDS011;24349;53.720;10.014;2023-07-29T13:49:59;3.88;;;1.88;;
38581;SDS011;24349;53.720;10.014;2023-07-29T13:52:25;5.05;;;2.10;;
38581;SDS011;24349;53.720;10.014;2023-07-29T13:54:51;4.80;;;2.08;;
38581;SDS011;24349;53.720;10.014;2023-07-29T13:57:16;4.38;;;1.98;;
38581;SDS011;24349;53.720;10.014;2023-07-29T13:59:42;4.90;;;2.33;;
38581;SDS011;24349;53.720;10.014;2023-07-29T14:02:08;4.38;;;2.10;;
38581;SDS011;24349;53.720;10.014;2023-07-29T14:04:33;5.07;;;2.30;;
38581;SDS011;24349;53.720;10.014;2023-07-29T14:06:59;3.92;;;1.90;;
38581;SDS011;24349;53.720;10.014;2023-07-29T14:09:25;3.95;;;1.95;;
38581;SDS011;24349;53.720;10.014;2023-07-29T14:11:51;5.05;;;1.98;;
38581;SDS011;24349;53.720;10.014;2023-07-29T14:14:18;3.97;;;2.00;;
38581;SDS011;24349;53.720;10.014;2023-07-29T14:16:44;4.50;;;1.92;;
38581;SDS011;24349;53.720;10.014;2023-07-29T14:19:09;4.07;;;1.80;;
38581;SDS011;24349;53.720;10.014;2023-07-29T14:21:35;3.88;;;1.92;;
38581;SDS011;24349;53.720;10.014;2023-07-29T14:24:03;4.13;;;1.83;;
38581;SDS011;24349;53.720;10.014;2023-07-29T14:26:29;4.50;;;2.10;;
38581;SDS011;24349;53.720;10.014;2023-07-29T14:28:54;4.38;;;1.80;;
38581;SDS011;24349;53.720;10.014;2023-07-29T14:31:20;4.55;;;1.80;;
38581;SDS011;24349;53.720;10.014;2023-07-29T14:33:45;4.28;;;1.90;;
38581;SDS011;24349;53.720;10.014;2023-07-29T14:36:11;5.70;;;1.95;;
38581;SDS011;24349;53.720;10.014;2023-07-29T14:38:37;3.78;;;1.60;;
38581;SDS011;24349;53.720;10.014;2023-07-29T14:41:03;5.38;;;2.20;;